Current | Forecast
Updated: 12:23 PM JST on June 25, 2018
Observed at Chofu, Japan
Temperature 93°F
Humidity 41%
Dew Point 66°F
Wind SSW at 5 mph
Pressure 29.83 in (Steady)
Conditions Partly Cloudy
Visibility 6.2 miles
UV 11 out of 16
Clouds (FEW) : 3000 ft
Yesterday's Maximum 82°F
Yesterday's Minimum 81°F approx.
Yesterday's Cooling Degree Days 17 approx.
Sunrise4:27 AM JST
Sunset7:01 PM JST
Moon Rise4:16 PM JST
Moon Set2:21 AM JST
Moon PhaseMoon Phase
Waxing Gibbous
Raw METARSPECI RJTF 250323Z 21004KT 140V290 9999 FEW030 34/19 Q1010 RMK 1CU030 A2985


Monday
. High: 80° F.
Tuesday
. High: 78° F.
Wednesday
. High: 69° F.
Thursday
. High: 75° F.
Friday
. High: 78° F.
Saturday
. High: 77° F.
Sunday
. High: 73° F.
Monday
. High: 73° F.

Units: English | Metric

Find the Weather for any City, State or Zipcode, or Country:

U.S. State List | Severe Weather | Tropical Storms | Ski Conditions
United States | Canada | Central America | South America | Asia | Europe | Australia | Africa | Islands

Weather Underground

© Copyright 2018
The Weather Company, LLC